sensor_id;sensor_type;location;lat;lon;timestamp;P1;durP1;ratioP1;P2;durP2;ratioP2
37997;SDS011;24079;51.824;4.682;2022-10-16T00:01:11;7.10;;;2.17;;
37997;SDS011;24079;51.824;4.682;2022-10-16T00:03:39;6.88;;;2.28;;
37997;SDS011;24079;51.824;4.682;2022-10-16T00:06:05;9.57;;;2.25;;
37997;SDS011;24079;51.824;4.682;2022-10-16T00:08:32;6.90;;;2.33;;
37997;SDS011;24079;51.824;4.682;2022-10-16T00:10:59;9.20;;;2.25;;
37997;SDS011;24079;51.824;4.682;2022-10-16T00:13:33;7.93;;;2.10;;
37997;SDS011;24079;51.824;4.682;2022-10-16T00:16:00;13.10;;;2.42;;
37997;SDS011;24079;51.824;4.682;2022-10-16T00:18:27;7.20;;;2.85;;
37997;SDS011;24079;51.824;4.682;2022-10-16T00:20:54;6.70;;;1.95;;
37997;SDS011;24079;51.824;4.682;2022-10-16T00:23:21;8.30;;;2.38;;
37997;SDS011;24079;51.824;4.682;2022-10-16T00:26:00;9.10;;;1.88;;
37997;SDS011;24079;51.824;4.682;2022-10-16T00:28:28;6.40;;;2.15;;
37997;SDS011;24079;51.824;4.682;2022-10-16T00:30:54;6.78;;;2.20;;
37997;SDS011;24079;51.824;4.682;2022-10-16T00:33:20;5.00;;;1.88;;
37997;SDS011;24079;51.824;4.682;2022-10-16T00:35:46;10.43;;;2.33;;
37997;SDS011;24079;51.824;4.682;2022-10-16T00:38:12;7.22;;;2.20;;
37997;SDS011;24079;51.824;4.682;2022-10-16T00:40:37;6.85;;;2.33;;
37997;SDS011;24079;51.824;4.682;2022-10-16T00:43:11;6.50;;;1.98;;
37997;SDS011;24079;51.824;4.682;2022-10-16T00:45:38;5.93;;;2.40;;
37997;SDS011;24079;51.824;4.682;2022-10-16T00:48:06;4.93;;;1.80;;
37997;SDS011;24079;51.824;4.682;2022-10-16T00:50:38;7.15;;;2.03;;
37997;SDS011;24079;51.824;4.682;2022-10-16T00:53:06;4.15;;;2.05;;
37997;SDS011;24079;51.824;4.682;2022-10-16T00:55:31;4.82;;;2.20;;
37997;SDS011;24079;51.824;4.682;2022-10-16T00:57:57;6.32;;;2.25;;
37997;SDS011;24079;51.824;4.682;2022-10-16T01:00:24;6.28;;;2.03;;
37997;SDS011;24079;51.824;4.682;2022-10-16T01:02:52;10.27;;;2.28;;
37997;SDS011;24079;51.824;4.682;2022-10-16T01:05:20;6.15;;;2.40;;
37997;SDS011;24079;51.824;4.682;2022-10-16T01:07:58;8.77;;;2.30;;
37997;SDS011;24079;51.824;4.682;2022-10-16T01:10:57;9.00;;;2.42;;
37997;SDS011;24079;51.824;4.682;2022-10-16T01:13:27;8.68;;;2.33;;
37997;SDS011;24079;51.824;4.682;2022-10-16T01:16:07;6.22;;;2.00;;
37997;SDS011;24079;51.824;4.682;2022-10-16T01:18:53;4.43;;;2.00;;
37997;SDS011;24079;51.824;4.682;2022-10-16T01:21:35;4.63;;;2.22;;
37997;SDS011;24079;51.824;4.682;2022-10-16T01:34:53;6.47;;;2.70;;
37997;SDS011;24079;51.824;4.682;2022-10-16T01:38:39;8.00;;;2.58;;
37997;SDS011;24079;51.824;4.682;2022-10-16T01:40:41;4.80;;;2.58;;
37997;SDS011;24079;51.824;4.682;2022-10-16T01:43:15;5.80;;;2.63;;
37997;SDS011;24079;51.824;4.682;2022-10-16T01:45:45;5.97;;;2.70;;
37997;SDS011;24079;51.824;4.682;2022-10-16T01:48:13;5.25;;;2.38;;
37997;SDS011;24079;51.824;4.682;2022-10-16T01:50:41;8.95;;;2.70;;
37997;SDS011;24079;51.824;4.682;2022-10-16T01:53:10;8.40;;;2.97;;
37997;SDS011;24079;51.824;4.682;2022-10-16T01:55:38;6.03;;;2.72;;
37997;SDS011;24079;51.824;4.682;2022-10-16T01:58:09;6.35;;;2.78;;
37997;SDS011;24079;51.824;4.682;2022-10-16T02:00:38;6.53;;;2.72;;
37997;SDS011;24079;51.824;4.682;2022-10-16T02:03:07;5.85;;;2.30;;
37997;SDS011;24079;51.824;4.682;2022-10-16T02:08:03;6.97;;;2.22;;
37997;SDS011;24079;51.824;4.682;2022-10-16T02:10:29;7.90;;;2.63;;
37997;SDS011;24079;51.824;4.682;2022-10-16T02:13:09;6.50;;;2.47;;
37997;SDS011;24079;51.824;4.682;2022-10-16T02:15:37;12.07;;;2.75;;
37997;SDS011;24079;51.824;4.682;2022-10-16T02:18:04;8.55;;;2.70;;
37997;SDS011;24079;51.824;4.682;2022-10-16T02:20:32;4.63;;;2.17;;
37997;SDS011;24079;51.824;4.682;2022-10-16T02:23:03;5.22;;;2.50;;
37997;SDS011;24079;51.824;4.682;2022-10-16T02:25:32;5.57;;;2.60;;
37997;SDS011;24079;51.824;4.682;2022-10-16T02:28:03;7.70;;;2.35;;
37997;SDS011;24079;51.824;4.682;2022-10-16T02:30:39;7.65;;;2.60;;
37997;SDS011;24079;51.824;4.682;2022-10-16T02:33:11;5.97;;;2.38;;
37997;SDS011;24079;51.824;4.682;2022-10-16T02:35:41;7.40;;;2.40;;
37997;SDS011;24079;51.824;4.682;2022-10-16T02:38:10;5.40;;;2.28;;
37997;SDS011;24079;51.824;4.682;2022-10-16T02:40:37;4.90;;;2.40;;
37997;SDS011;24079;51.824;4.682;2022-10-16T02:43:03;5.65;;;2.40;;
37997;SDS011;24079;51.824;4.682;2022-10-16T02:45:30;6.20;;;2.05;;
37997;SDS011;24079;51.824;4.682;2022-10-16T02:47:56;5.05;;;2.30;;
37997;SDS011;24079;51.824;4.682;2022-10-16T02:50:22;6.32;;;2.58;;
37997;SDS011;24079;51.824;4.682;2022-10-16T02:52:49;5.93;;;2.40;;
37997;SDS011;24079;51.824;4.682;2022-10-16T02:55:14;6.50;;;2.15;;
37997;SDS011;24079;51.824;4.682;2022-10-16T02:57:40;7.80;;;2.17;;
37997;SDS011;24079;51.824;4.682;2022-10-16T03:00:06;7.18;;;2.65;;
37997;SDS011;24079;51.824;4.682;2022-10-16T03:02:34;4.55;;;2.00;;
37997;SDS011;24079;51.824;4.682;2022-10-16T03:05:00;5.65;;;2.00;;
37997;SDS011;24079;51.824;4.682;2022-10-16T03:07:26;5.80;;;2.10;;
37997;SDS011;24079;51.824;4.682;2022-10-16T03:09:51;4.90;;;2.13;;
37997;SDS011;24079;51.824;4.682;2022-10-16T03:12:17;10.93;;;1.85;;
37997;SDS011;24079;51.824;4.682;2022-10-16T03:14:42;6.13;;;1.75;;
37997;SDS011;24079;51.824;4.682;2022-10-16T03:17:08;4.65;;;2.10;;
37997;SDS011;24079;51.824;4.682;2022-10-16T03:19:33;7.53;;;1.70;;
37997;SDS011;24079;51.824;4.682;2022-10-16T03:22:00;5.80;;;1.73;;
37997;SDS011;24079;51.824;4.682;2022-10-16T03:24:26;4.85;;;1.98;;
37997;SDS011;24079;51.824;4.682;2022-10-16T03:26:52;5.97;;;1.90;;
37997;SDS011;24079;51.824;4.682;2022-10-16T03:29:17;5.53;;;1.65;;
37997;SDS011;24079;51.824;4.682;2022-10-16T03:31:43;2.90;;;1.80;;
37997;SDS011;24079;51.824;4.682;2022-10-16T03:34:08;5.38;;;2.00;;
37997;SDS011;24079;51.824;4.682;2022-10-16T03:36:34;5.32;;;1.80;;
37997;SDS011;24079;51.824;4.682;2022-10-16T03:39:00;7.22;;;1.60;;
37997;SDS011;24079;51.824;4.682;2022-10-16T03:41:25;4.22;;;1.45;;
37997;SDS011;24079;51.824;4.682;2022-10-16T03:43:51;4.93;;;1.63;;
37997;SDS011;24079;51.824;4.682;2022-10-16T03:46:16;3.22;;;1.50;;
37997;SDS011;24079;51.824;4.682;2022-10-16T03:48:42;3.67;;;1.80;;
37997;SDS011;24079;51.824;4.682;2022-10-16T03:51:07;5.90;;;2.00;;
37997;SDS011;24079;51.824;4.682;2022-10-16T03:53:33;6.25;;;1.70;;
37997;SDS011;24079;51.824;4.682;2022-10-16T03:55:59;5.07;;;2.03;;
37997;SDS011;24079;51.824;4.682;2022-10-16T03:58:25;5.57;;;2.00;;
37997;SDS011;24079;51.824;4.682;2022-10-16T04:00:50;6.20;;;2.13;;
37997;SDS011;24079;51.824;4.682;2022-10-16T04:03:16;9.38;;;2.42;;
37997;SDS011;24079;51.824;4.682;2022-10-16T04:05:43;4.00;;;1.95;;
37997;SDS011;24079;51.824;4.682;2022-10-16T04:08:09;6.32;;;1.77;;
37997;SDS011;24079;51.824;4.682;2022-10-16T04:10:35;6.30;;;2.20;;
37997;SDS011;24079;51.824;4.682;2022-10-16T04:13:00;7.85;;;2.15;;
37997;SDS011;24079;51.824;4.682;2022-10-16T04:15:26;5.18;;;1.80;;
37997;SDS011;24079;51.824;4.682;2022-10-16T04:17:52;7.63;;;1.77;;
37997;SDS011;24079;51.824;4.682;2022-10-16T04:20:18;8.75;;;2.17;;
37997;SDS011;24079;51.824;4.682;2022-10-16T04:22:44;4.55;;;2.10;;
37997;SDS011;24079;51.824;4.682;2022-10-16T04:25:09;6.22;;;2.08;;
37997;SDS011;24079;51.824;4.682;2022-10-16T04:27:36;7.60;;;2.10;;
37997;SDS011;24079;51.824;4.682;2022-10-16T04:30:03;2.58;;;1.60;;
37997;SDS011;24079;51.824;4.682;2022-10-16T04:32:29;6.63;;;2.03;;
37997;SDS011;24079;51.824;4.682;2022-10-16T04:34:54;4.30;;;2.20;;
37997;SDS011;24079;51.824;4.682;2022-10-16T04:37:24;5.25;;;1.92;;
37997;SDS011;24079;51.824;4.682;2022-10-16T04:39:50;6.60;;;2.17;;
37997;SDS011;24079;51.824;4.682;2022-10-16T04:42:16;17.05;;;2.22;;
37997;SDS011;24079;51.824;4.682;2022-10-16T04:44:42;6.72;;;2.13;;
37997;SDS011;24079;51.824;4.682;2022-10-16T04:47:07;9.98;;;2.10;;
37997;SDS011;24079;51.824;4.682;2022-10-16T04:49:33;5.07;;;2.10;;
37997;SDS011;24079;51.824;4.682;2022-10-16T04:51:58;8.60;;;2.08;;
37997;SDS011;24079;51.824;4.682;2022-10-16T04:54:24;8.43;;;2.28;;
37997;SDS011;24079;51.824;4.682;2022-10-16T04:56:50;8.10;;;2.22;;
37997;SDS011;24079;51.824;4.682;2022-10-16T04:59:17;4.65;;;1.83;;
37997;SDS011;24079;51.824;4.682;2022-10-16T05:01:44;7.65;;;2.38;;
37997;SDS011;24079;51.824;4.682;2022-10-16T05:04:10;5.80;;;2.08;;
37997;SDS011;24079;51.824;4.682;2022-10-16T05:06:36;11.02;;;2.53;;
37997;SDS011;24079;51.824;4.682;2022-10-16T05:09:03;5.00;;;2.25;;
37997;SDS011;24079;51.824;4.682;2022-10-16T05:11:29;7.68;;;1.92;;
37997;SDS011;24079;51.824;4.682;2022-10-16T05:13:55;7.55;;;2.10;;
37997;SDS011;24079;51.824;4.682;2022-10-16T05:16:21;7.28;;;2.30;;
37997;SDS011;24079;51.824;4.682;2022-10-16T05:18:46;5.43;;;2.00;;
37997;SDS011;24079;51.824;4.682;2022-10-16T05:21:12;6.13;;;1.90;;
37997;SDS011;24079;51.824;4.682;2022-10-16T05:23:38;7.90;;;2.40;;
37997;SDS011;24079;51.824;4.682;2022-10-16T05:26:03;7.28;;;2.28;;
37997;SDS011;24079;51.824;4.682;2022-10-16T05:28:29;7.60;;;2.28;;
37997;SDS011;24079;51.824;4.682;2022-10-16T05:30:56;8.70;;;2.28;;
37997;SDS011;24079;51.824;4.682;2022-10-16T05:33:22;6.07;;;1.90;;
37997;SDS011;24079;51.824;4.682;2022-10-16T05:35:50;15.50;;;2.13;;
37997;SDS011;24079;51.824;4.682;2022-10-16T05:38:16;5.57;;;2.20;;
37997;SDS011;24079;51.824;4.682;2022-10-16T05:40:43;10.38;;;2.08;;
37997;SDS011;24079;51.824;4.682;2022-10-16T05:45:40;6.78;;;1.65;;
37997;SDS011;24079;51.824;4.682;2022-10-16T05:48:06;8.13;;;2.28;;
37997;SDS011;24079;51.824;4.682;2022-10-16T05:50:31;5.07;;;2.08;;
37997;SDS011;24079;51.824;4.682;2022-10-16T05:52:57;6.05;;;2.00;;
37997;SDS011;24079;51.824;4.682;2022-10-16T05:55:22;8.77;;;2.10;;
37997;SDS011;24079;51.824;4.682;2022-10-16T05:57:48;5.93;;;2.17;;
37997;SDS011;24079;51.824;4.682;2022-10-16T06:00:13;9.88;;;2.17;;
37997;SDS011;24079;51.824;4.682;2022-10-16T06:02:39;9.00;;;2.00;;
37997;SDS011;24079;51.824;4.682;2022-10-16T06:05:05;6.90;;;1.92;;
37997;SDS011;24079;51.824;4.682;2022-10-16T06:07:33;5.93;;;2.08;;
37997;SDS011;24079;51.824;4.682;2022-10-16T06:09:59;8.15;;;2.03;;
37997;SDS011;24079;51.824;4.682;2022-10-16T06:12:26;11.50;;;2.00;;
37997;SDS011;24079;51.824;4.682;2022-10-16T06:14:52;9.63;;;2.33;;
37997;SDS011;24079;51.824;4.682;2022-10-16T06:17:17;8.68;;;1.95;;
37997;SDS011;24079;51.824;4.682;2022-10-16T06:19:43;8.10;;;2.30;;
37997;SDS011;24079;51.824;4.682;2022-10-16T06:22:08;7.97;;;2.20;;
37997;SDS011;24079;51.824;4.682;2022-10-16T06:24:34;7.57;;;2.05;;
37997;SDS011;24079;51.824;4.682;2022-10-16T06:27:00;4.93;;;1.80;;
37997;SDS011;24079;51.824;4.682;2022-10-16T06:29:25;5.35;;;2.15;;
37997;SDS011;24079;51.824;4.682;2022-10-16T06:31:51;7.43;;;2.05;;
37997;SDS011;24079;51.824;4.682;2022-10-16T06:34:17;4.05;;;2.25;;
37997;SDS011;24079;51.824;4.682;2022-10-16T06:36:43;7.05;;;2.10;;
37997;SDS011;24079;51.824;4.682;2022-10-16T06:39:09;5.95;;;2.30;;
37997;SDS011;24079;51.824;4.682;2022-10-16T06:41:34;8.25;;;1.75;;
37997;SDS011;24079;51.824;4.682;2022-10-16T06:44:00;11.13;;;2.20;;
37997;SDS011;24079;51.824;4.682;2022-10-16T06:46:26;8.85;;;2.38;;
37997;SDS011;24079;51.824;4.682;2022-10-16T06:48:52;10.50;;;2.55;;
37997;SDS011;24079;51.824;4.682;2022-10-16T06:51:19;11.38;;;2.75;;
37997;SDS011;24079;51.824;4.682;2022-10-16T06:53:47;10.02;;;2.67;;
37997;SDS011;24079;51.824;4.682;2022-10-16T06:56:18;13.98;;;2.17;;
37997;SDS011;24079;51.824;4.682;2022-10-16T06:58:48;11.70;;;3.00;;
37997;SDS011;24079;51.824;4.682;2022-10-16T07:01:15;12.77;;;2.60;;
37997;SDS011;24079;51.824;4.682;2022-10-16T07:03:43;5.32;;;2.10;;
37997;SDS011;24079;51.824;4.682;2022-10-16T07:06:10;5.50;;;2.00;;
37997;SDS011;24079;51.824;4.682;2022-10-16T07:08:38;12.80;;;2.50;;
37997;SDS011;24079;51.824;4.682;2022-10-16T07:11:06;11.70;;;2.50;;
37997;SDS011;24079;51.824;4.682;2022-10-16T07:13:34;13.68;;;2.60;;
37997;SDS011;24079;51.824;4.682;2022-10-16T07:16:04;8.93;;;2.30;;
37997;SDS011;24079;51.824;4.682;2022-10-16T07:18:30;8.25;;;2.53;;
37997;SDS011;24079;51.824;4.682;2022-10-16T07:21:02;7.53;;;2.30;;
37997;SDS011;24079;51.824;4.682;2022-10-16T07:23:33;8.80;;;2.00;;
37997;SDS011;24079;51.824;4.682;2022-10-16T07:25:59;14.70;;;2.45;;
37997;SDS011;24079;51.824;4.682;2022-10-16T07:28:25;8.02;;;2.33;;
37997;SDS011;24079;51.824;4.682;2022-10-16T07:30:50;10.82;;;2.50;;
37997;SDS011;24079;51.824;4.682;2022-10-16T07:33:16;7.80;;;2.13;;
37997;SDS011;24079;51.824;4.682;2022-10-16T07:35:54;6.93;;;1.92;;
37997;SDS011;24079;51.824;4.682;2022-10-16T07:38:20;6.38;;;2.00;;
37997;SDS011;24079;51.824;4.682;2022-10-16T07:40:46;10.70;;;2.42;;
37997;SDS011;24079;51.824;4.682;2022-10-16T07:43:12;7.63;;;2.47;;
37997;SDS011;24079;51.824;4.682;2022-10-16T07:45:46;11.88;;;2.67;;
37997;SDS011;24079;51.824;4.682;2022-10-16T07:48:13;5.88;;;2.03;;
37997;SDS011;24079;51.824;4.682;2022-10-16T07:50:39;10.35;;;2.20;;
37997;SDS011;24079;51.824;4.682;2022-10-16T07:53:04;8.32;;;1.90;;
37997;SDS011;24079;51.824;4.682;2022-10-16T07:55:30;8.45;;;2.30;;
37997;SDS011;24079;51.824;4.682;2022-10-16T07:57:55;7.57;;;1.70;;
37997;SDS011;24079;51.824;4.682;2022-10-16T08:00:21;6.50;;;1.85;;
37997;SDS011;24079;51.824;4.682;2022-10-16T08:02:46;15.63;;;2.20;;
37997;SDS011;24079;51.824;4.682;2022-10-16T08:05:12;7.10;;;1.80;;
37997;SDS011;24079;51.824;4.682;2022-10-16T08:07:38;10.93;;;1.77;;
37997;SDS011;24079;51.824;4.682;2022-10-16T08:10:03;12.25;;;2.58;;
37997;SDS011;24079;51.824;4.682;2022-10-16T08:12:29;8.27;;;2.30;;
37997;SDS011;24079;51.824;4.682;2022-10-16T08:14:55;12.02;;;2.05;;
37997;SDS011;24079;51.824;4.682;2022-10-16T08:17:20;13.10;;;2.30;;
37997;SDS011;24079;51.824;4.682;2022-10-16T08:19:46;7.55;;;2.60;;
37997;SDS011;24079;51.824;4.682;2022-10-16T08:22:12;10.18;;;2.25;;
37997;SDS011;24079;51.824;4.682;2022-10-16T08:24:39;12.25;;;2.58;;
37997;SDS011;24079;51.824;4.682;2022-10-16T08:27:05;7.57;;;2.03;;
37997;SDS011;24079;51.824;4.682;2022-10-16T08:29:30;10.38;;;1.90;;
37997;SDS011;24079;51.824;4.682;2022-10-16T08:31:56;10.38;;;2.08;;
37997;SDS011;24079;51.824;4.682;2022-10-16T08:34:22;13.32;;;2.03;;
37997;SDS011;24079;51.824;4.682;2022-10-16T08:36:47;12.85;;;1.83;;
37997;SDS011;24079;51.824;4.682;2022-10-16T08:39:13;11.02;;;1.83;;
37997;SDS011;24079;51.824;4.682;2022-10-16T08:47:08;18.92;;;2.83;;
37997;SDS011;24079;51.824;4.682;2022-10-16T08:50:08;14.70;;;2.60;;
37997;SDS011;24079;51.824;4.682;2022-10-16T08:52:35;7.18;;;2.00;;
37997;SDS011;24079;51.824;4.682;2022-10-16T08:55:06;12.15;;;2.25;;
37997;SDS011;24079;51.824;4.682;2022-10-16T08:57:37;11.23;;;2.10;;
37997;SDS011;24079;51.824;4.682;2022-10-16T09:00:12;11.23;;;2.25;;
37997;SDS011;24079;51.824;4.682;2022-10-16T09:02:50;11.90;;;2.13;;
37997;SDS011;24079;51.824;4.682;2022-10-16T09:13:29;13.27;;;2.35;;
37997;SDS011;24079;51.824;4.682;2022-10-16T09:16:10;15.35;;;3.00;;
37997;SDS011;24079;51.824;4.682;2022-10-16T09:21:38;14.85;;;2.53;;
37997;SDS011;24079;51.824;4.682;2022-10-16T09:24:12;14.73;;;3.22;;
37997;SDS011;24079;51.824;4.682;2022-10-16T09:26:42;7.63;;;2.00;;
37997;SDS011;24079;51.824;4.682;2022-10-16T09:29:14;9.60;;;2.20;;
37997;SDS011;24079;51.824;4.682;2022-10-16T09:31:41;10.80;;;2.30;;
37997;SDS011;24079;51.824;4.682;2022-10-16T09:36:51;10.02;;;2.38;;
37997;SDS011;24079;51.824;4.682;2022-10-16T09:39:17;16.85;;;2.97;;
37997;SDS011;24079;51.824;4.682;2022-10-16T09:41:43;10.23;;;2.05;;
37997;SDS011;24079;51.824;4.682;2022-10-16T09:47:00;14.85;;;2.47;;
37997;SDS011;24079;51.824;4.682;2022-10-16T09:49:29;14.23;;;2.50;;
37997;SDS011;24079;51.824;4.682;2022-10-16T09:52:05;13.85;;;2.47;;
37997;SDS011;24079;51.824;4.682;2022-10-16T09:54:35;14.88;;;2.60;;
37997;SDS011;24079;51.824;4.682;2022-10-16T09:57:05;19.67;;;3.65;;
37997;SDS011;24079;51.824;4.682;2022-10-16T09:59:32;15.35;;;2.40;;
37997;SDS011;24079;51.824;4.682;2022-10-16T10:02:01;19.90;;;2.47;;
37997;SDS011;24079;51.824;4.682;2022-10-16T10:04:40;16.65;;;3.00;;
37997;SDS011;24079;51.824;4.682;2022-10-16T10:07:15;12.75;;;2.55;;
37997;SDS011;24079;51.824;4.682;2022-10-16T10:09:45;13.45;;;2.42;;
37997;SDS011;24079;51.824;4.682;2022-10-16T10:12:30;17.05;;;2.97;;
37997;SDS011;24079;51.824;4.682;2022-10-16T10:15:07;16.88;;;2.47;;
37997;SDS011;24079;51.824;4.682;2022-10-16T10:17:45;19.08;;;2.92;;
37997;SDS011;24079;51.824;4.682;2022-10-16T10:20:22;19.15;;;2.65;;
37997;SDS011;24079;51.824;4.682;2022-10-16T10:22:57;15.48;;;2.80;;
37997;SDS011;24079;51.824;4.682;2022-10-16T10:33:31;11.40;;;2.13;;
37997;SDS011;24079;51.824;4.682;2022-10-16T10:36:11;11.63;;;2.47;;
37997;SDS011;24079;51.824;4.682;2022-10-16T10:47:31;14.05;;;2.80;;
37997;SDS011;24079;51.824;4.682;2022-10-16T10:53:00;20.73;;;2.95;;
37997;SDS011;24079;51.824;4.682;2022-10-16T10:55:53;19.67;;;2.65;;
37997;SDS011;24079;51.824;4.682;2022-10-16T11:01:16;13.55;;;2.60;;
37997;SDS011;24079;51.824;4.682;2022-10-16T11:06:36;18.42;;;3.33;;
37997;SDS011;24079;51.824;4.682;2022-10-16T11:09:13;14.25;;;3.00;;
37997;SDS011;24079;51.824;4.682;2022-10-16T11:11:47;17.30;;;2.88;;
37997;SDS011;24079;51.824;4.682;2022-10-16T11:17:04;13.95;;;2.90;;
37997;SDS011;24079;51.824;4.682;2022-10-16T11:22:19;15.75;;;2.67;;
37997;SDS011;24079;51.824;4.682;2022-10-16T11:24:52;13.75;;;2.80;;
37997;SDS011;24079;51.824;4.682;2022-10-16T11:27:29;17.25;;;2.63;;
37997;SDS011;24079;51.824;4.682;2022-10-16T11:30:05;14.93;;;2.50;;
37997;SDS011;24079;51.824;4.682;2022-10-16T11:32:52;18.52;;;2.88;;
37997;SDS011;24079;51.824;4.682;2022-10-16T11:38:22;14.68;;;3.05;;
37997;SDS011;24079;51.824;4.682;2022-10-16T11:40:53;16.17;;;2.58;;
37997;SDS011;24079;51.824;4.682;2022-10-16T11:43:29;14.15;;;2.47;;
37997;SDS011;24079;51.824;4.682;2022-10-16T11:46:15;13.07;;;2.47;;
37997;SDS011;24079;51.824;4.682;2022-10-16T11:48:45;20.52;;;2.95;;
37997;SDS011;24079;51.824;4.682;2022-10-16T11:51:28;17.30;;;3.13;;
37997;SDS011;24079;51.824;4.682;2022-10-16T11:57:26;12.98;;;2.50;;
37997;SDS011;24079;51.824;4.682;2022-10-16T12:08:14;11.85;;;2.70;;
37997;SDS011;24079;51.824;4.682;2022-10-16T12:10:42;15.10;;;2.83;;
37997;SDS011;24079;51.824;4.682;2022-10-16T12:13:30;15.27;;;2.63;;
37997;SDS011;24079;51.824;4.682;2022-10-16T12:16:04;15.45;;;3.05;;
37997;SDS011;24079;51.824;4.682;2022-10-16T12:18:45;14.52;;;3.03;;
37997;SDS011;24079;51.824;4.682;2022-10-16T12:21:13;15.73;;;2.63;;
37997;SDS011;24079;51.824;4.682;2022-10-16T12:26:26;16.25;;;3.10;;
37997;SDS011;24079;51.824;4.682;2022-10-16T12:28:54;14.07;;;2.35;;
37997;SDS011;24079;51.824;4.682;2022-10-16T12:31:21;15.00;;;2.75;;
37997;SDS011;24079;51.824;4.682;2022-10-16T12:34:06;22.83;;;2.88;;
37997;SDS011;24079;51.824;4.682;2022-10-16T12:36:44;18.00;;;3.30;;
37997;SDS011;24079;51.824;4.682;2022-10-16T12:39:16;17.77;;;2.22;;
37997;SDS011;24079;51.824;4.682;2022-10-16T12:42:03;20.02;;;2.58;;
37997;SDS011;24079;51.824;4.682;2022-10-16T12:44:34;15.48;;;3.20;;
37997;SDS011;24079;51.824;4.682;2022-10-16T12:47:01;11.75;;;2.30;;
37997;SDS011;24079;51.824;4.682;2022-10-16T12:51:53;16.15;;;2.47;;
37997;SDS011;24079;51.824;4.682;2022-10-16T12:54:27;16.05;;;3.00;;
37997;SDS011;24079;51.824;4.682;2022-10-16T13:10:37;12.82;;;2.40;;
37997;SDS011;24079;51.824;4.682;2022-10-16T13:15:58;14.43;;;3.03;;
37997;SDS011;24079;51.824;4.682;2022-10-16T13:29:21;11.65;;;2.70;;
37997;SDS011;24079;51.824;4.682;2022-10-16T13:31:47;21.45;;;3.70;;
37997;SDS011;24079;51.824;4.682;2022-10-16T13:34:14;17.08;;;2.63;;
37997;SDS011;24079;51.824;4.682;2022-10-16T13:36:45;12.95;;;2.75;;
37997;SDS011;24079;51.824;4.682;2022-10-16T13:39:19;16.80;;;3.00;;
37997;SDS011;24079;51.824;4.682;2022-10-16T13:44:39;16.83;;;3.10;;
37997;SDS011;24079;51.824;4.682;2022-10-16T13:47:17;13.00;;;2.40;;
37997;SDS011;24079;51.824;4.682;2022-10-16T13:49:59;17.80;;;3.35;;
37997;SDS011;24079;51.824;4.682;2022-10-16T13:52:30;16.77;;;2.97;;
37997;SDS011;24079;51.824;4.682;2022-10-16T13:54:55;20.63;;;3.25;;
37997;SDS011;24079;51.824;4.682;2022-10-16T13:57:22;18.15;;;2.65;;
37997;SDS011;24079;51.824;4.682;2022-10-16T13:59:49;13.38;;;2.33;;
37997;SDS011;24079;51.824;4.682;2022-10-16T14:02:18;13.02;;;2.47;;
37997;SDS011;24079;51.824;4.682;2022-10-16T14:05:00;15.45;;;3.10;;
37997;SDS011;24079;51.824;4.682;2022-10-16T14:07:28;21.95;;;3.85;;
37997;SDS011;24079;51.824;4.682;2022-10-16T14:10:01;17.38;;;2.90;;
37997;SDS011;24079;51.824;4.682;2022-10-16T14:12:29;12.18;;;2.72;;
37997;SDS011;24079;51.824;4.682;2022-10-16T14:14:55;19.08;;;3.65;;
37997;SDS011;24079;51.824;4.682;2022-10-16T14:17:24;13.95;;;2.63;;
37997;SDS011;24079;51.824;4.682;2022-10-16T14:19:54;10.60;;;2.63;;
37997;SDS011;24079;51.824;4.682;2022-10-16T14:24:49;19.48;;;3.05;;
37997;SDS011;24079;51.824;4.682;2022-10-16T14:27:26;15.57;;;2.58;;
37997;SDS011;24079;51.824;4.682;2022-10-16T14:32:41;10.77;;;2.47;;
37997;SDS011;24079;51.824;4.682;2022-10-16T14:35:27;14.43;;;3.15;;
37997;SDS011;24079;51.824;4.682;2022-10-16T14:37:55;13.52;;;2.72;;
37997;SDS011;24079;51.824;4.682;2022-10-16T14:40:23;13.18;;;3.22;;
37997;SDS011;24079;51.824;4.682;2022-10-16T14:42:51;11.65;;;2.38;;
37997;SDS011;24079;51.824;4.682;2022-10-16T14:45:21;19.85;;;3.20;;
37997;SDS011;24079;51.824;4.682;2022-10-16T14:47:50;14.73;;;2.70;;
37997;SDS011;24079;51.824;4.682;2022-10-16T14:50:17;13.93;;;2.75;;
37997;SDS011;24079;51.824;4.682;2022-10-16T14:52:43;15.25;;;2.58;;
37997;SDS011;24079;51.824;4.682;2022-10-16T14:55:09;16.27;;;2.58;;
37997;SDS011;24079;51.824;4.682;2022-10-16T14:57:35;16.20;;;2.72;;
37997;SDS011;24079;51.824;4.682;2022-10-16T15:00:03;18.13;;;2.67;;
37997;SDS011;24079;51.824;4.682;2022-10-16T15:02:40;19.70;;;3.05;;
37997;SDS011;24079;51.824;4.682;2022-10-16T15:05:15;17.90;;;3.28;;
37997;SDS011;24079;51.824;4.682;2022-10-16T15:07:41;14.18;;;2.63;;
37997;SDS011;24079;51.824;4.682;2022-10-16T15:10:07;12.85;;;2.75;;
37997;SDS011;24079;51.824;4.682;2022-10-16T15:12:32;11.77;;;2.60;;
37997;SDS011;24079;51.824;4.682;2022-10-16T15:14:58;15.93;;;2.70;;
37997;SDS011;24079;51.824;4.682;2022-10-16T15:17:24;10.23;;;2.30;;
37997;SDS011;24079;51.824;4.682;2022-10-16T15:19:49;18.77;;;2.85;;
37997;SDS011;24079;51.824;4.682;2022-10-16T15:22:16;17.23;;;2.95;;
37997;SDS011;24079;51.824;4.682;2022-10-16T15:24:42;13.45;;;2.47;;
37997;SDS011;24079;51.824;4.682;2022-10-16T15:27:08;12.73;;;2.65;;
37997;SDS011;24079;51.824;4.682;2022-10-16T15:29:33;15.10;;;3.08;;
37997;SDS011;24079;51.824;4.682;2022-10-16T15:31:59;17.10;;;2.80;;
37997;SDS011;24079;51.824;4.682;2022-10-16T15:34:24;12.10;;;2.40;;
37997;SDS011;24079;51.824;4.682;2022-10-16T15:36:50;13.77;;;2.75;;
37997;SDS011;24079;51.824;4.682;2022-10-16T15:39:17;15.43;;;2.47;;
37997;SDS011;24079;51.824;4.682;2022-10-16T15:41:44;17.20;;;2.92;;
37997;SDS011;24079;51.824;4.682;2022-10-16T15:44:19;16.40;;;3.10;;
37997;SDS011;24079;51.824;4.682;2022-10-16T15:46:45;14.40;;;3.38;;
37997;SDS011;24079;51.824;4.682;2022-10-16T15:49:11;11.90;;;2.45;;
37997;SDS011;24079;51.824;4.682;2022-10-16T15:51:38;11.88;;;2.60;;
37997;SDS011;24079;51.824;4.682;2022-10-16T15:54:05;13.20;;;2.75;;
37997;SDS011;24079;51.824;4.682;2022-10-16T15:56:30;13.98;;;3.00;;
37997;SDS011;24079;51.824;4.682;2022-10-16T15:58:58;15.80;;;3.30;;
37997;SDS011;24079;51.824;4.682;2022-10-16T16:01:27;19.45;;;4.10;;
37997;SDS011;24079;51.824;4.682;2022-10-16T16:03:54;11.43;;;2.83;;
37997;SDS011;24079;51.824;4.682;2022-10-16T16:06:20;13.50;;;3.08;;
37997;SDS011;24079;51.824;4.682;2022-10-16T16:08:48;15.90;;;3.70;;
37997;SDS011;24079;51.824;4.682;2022-10-16T16:11:15;14.15;;;3.78;;
37997;SDS011;24079;51.824;4.682;2022-10-16T16:13:41;19.65;;;4.32;;
37997;SDS011;24079;51.824;4.682;2022-10-16T16:16:11;10.23;;;3.35;;
37997;SDS011;24079;51.824;4.682;2022-10-16T16:18:38;12.63;;;3.70;;
37997;SDS011;24079;51.824;4.682;2022-10-16T16:21:04;17.98;;;4.07;;
37997;SDS011;24079;51.824;4.682;2022-10-16T16:23:30;16.48;;;4.55;;
37997;SDS011;24079;51.824;4.682;2022-10-16T16:28:48;16.08;;;3.20;;
37997;SDS011;24079;51.824;4.682;2022-10-16T16:31:14;14.95;;;3.75;;
37997;SDS011;24079;51.824;4.682;2022-10-16T16:33:40;16.45;;;3.22;;
37997;SDS011;24079;51.824;4.682;2022-10-16T16:36:05;13.27;;;3.00;;
37997;SDS011;24079;51.824;4.682;2022-10-16T16:38:31;19.27;;;4.30;;
37997;SDS011;24079;51.824;4.682;2022-10-16T16:40:57;17.38;;;3.03;;
37997;SDS011;24079;51.824;4.682;2022-10-16T16:43:24;14.60;;;3.10;;
37997;SDS011;24079;51.824;4.682;2022-10-16T16:45:51;13.23;;;3.22;;
37997;SDS011;24079;51.824;4.682;2022-10-16T16:48:17;16.25;;;2.75;;
37997;SDS011;24079;51.824;4.682;2022-10-16T16:50:42;14.60;;;3.00;;
37997;SDS011;24079;51.824;4.682;2022-10-16T16:53:08;13.60;;;3.47;;
37997;SDS011;24079;51.824;4.682;2022-10-16T16:55:35;12.35;;;3.20;;
37997;SDS011;24079;51.824;4.682;2022-10-16T16:58:01;22.00;;;3.05;;